sensor_id;sensor_type;location;lat;lon;timestamp;P1;durP1;ratioP1;P2;durP2;ratioP2
12814;SDS011;6472;52.328;13.070;2023-02-28T00:00:19;10.07;;;5.87;;
12814;SDS011;6472;52.328;13.070;2023-02-28T00:02:47;8.60;;;4.60;;
12814;SDS011;6472;52.328;13.070;2023-02-28T00:05:17;7.47;;;5.27;;
12814;SDS011;6472;52.328;13.070;2023-02-28T00:07:46;8.33;;;4.83;;
12814;SDS011;6472;52.328;13.070;2023-02-28T00:10:15;10.03;;;5.83;;
12814;SDS011;6472;52.328;13.070;2023-02-28T00:12:48;6.33;;;4.53;;
12814;SDS011;6472;52.328;13.070;2023-02-28T00:15:16;7.90;;;4.43;;
12814;SDS011;6472;52.328;13.070;2023-02-28T00:17:44;5.03;;;4.17;;
12814;SDS011;6472;52.328;13.070;2023-02-28T00:20:12;5.53;;;3.83;;
12814;SDS011;6472;52.328;13.070;2023-02-28T00:22:42;8.90;;;5.00;;
12814;SDS011;6472;52.328;13.070;2023-02-28T00:25:12;4.13;;;3.20;;
12814;SDS011;6472;52.328;13.070;2023-02-28T00:27:42;6.63;;;3.53;;
12814;SDS011;6472;52.328;13.070;2023-02-28T00:30:13;6.10;;;3.83;;
12814;SDS011;6472;52.328;13.070;2023-02-28T00:32:43;4.83;;;2.73;;
12814;SDS011;6472;52.328;13.070;2023-02-28T00:35:11;7.00;;;3.53;;
12814;SDS011;6472;52.328;13.070;2023-02-28T00:37:40;3.97;;;3.20;;
12814;SDS011;6472;52.328;13.070;2023-02-28T00:40:08;2.30;;;2.10;;
12814;SDS011;6472;52.328;13.070;2023-02-28T00:42:38;5.80;;;2.47;;
12814;SDS011;6472;52.328;13.070;2023-02-28T00:45:07;3.17;;;1.73;;
12814;SDS011;6472;52.328;13.070;2023-02-28T00:47:38;3.23;;;2.00;;
12814;SDS011;6472;52.328;13.070;2023-02-28T00:50:06;2.57;;;2.13;;
12814;SDS011;6472;52.328;13.070;2023-02-28T00:52:35;3.00;;;2.17;;
12814;SDS011;6472;52.328;13.070;2023-02-28T00:55:03;2.13;;;2.03;;
12814;SDS011;6472;52.328;13.070;2023-02-28T00:57:32;2.90;;;2.37;;
12814;SDS011;6472;52.328;13.070;2023-02-28T01:00:00;2.50;;;2.00;;
12814;SDS011;6472;52.328;13.070;2023-02-28T01:02:29;2.23;;;1.97;;
12814;SDS011;6472;52.328;13.070;2023-02-28T01:04:58;6.27;;;2.50;;
12814;SDS011;6472;52.328;13.070;2023-02-28T01:07:26;4.97;;;2.50;;
12814;SDS011;6472;52.328;13.070;2023-02-28T01:09:54;4.73;;;2.50;;
12814;SDS011;6472;52.328;13.070;2023-02-28T01:12:22;3.47;;;2.53;;
12814;SDS011;6472;52.328;13.070;2023-02-28T01:14:50;2.77;;;1.83;;
12814;SDS011;6472;52.328;13.070;2023-02-28T01:17:18;6.67;;;1.97;;
12814;SDS011;6472;52.328;13.070;2023-02-28T01:19:46;2.63;;;2.00;;
12814;SDS011;6472;52.328;13.070;2023-02-28T01:22:16;3.17;;;2.40;;
12814;SDS011;6472;52.328;13.070;2023-02-28T01:24:44;5.50;;;2.13;;
12814;SDS011;6472;52.328;13.070;2023-02-28T01:27:13;4.80;;;3.13;;
12814;SDS011;6472;52.328;13.070;2023-02-28T01:29:41;2.40;;;2.20;;
12814;SDS011;6472;52.328;13.070;2023-02-28T01:32:09;3.07;;;2.77;;
12814;SDS011;6472;52.328;13.070;2023-02-28T01:34:37;2.60;;;2.40;;
12814;SDS011;6472;52.328;13.070;2023-02-28T01:37:05;3.27;;;2.10;;
12814;SDS011;6472;52.328;13.070;2023-02-28T01:39:35;4.93;;;2.27;;
12814;SDS011;6472;52.328;13.070;2023-02-28T01:42:03;3.83;;;2.10;;
12814;SDS011;6472;52.328;13.070;2023-02-28T01:47:24;2.83;;;2.57;;
12814;SDS011;6472;52.328;13.070;2023-02-28T01:49:54;3.03;;;2.70;;
12814;SDS011;6472;52.328;13.070;2023-02-28T01:52:22;2.00;;;1.80;;
12814;SDS011;6472;52.328;13.070;2023-02-28T01:54:53;2.57;;;2.03;;
12814;SDS011;6472;52.328;13.070;2023-02-28T01:57:24;2.67;;;1.80;;
12814;SDS011;6472;52.328;13.070;2023-02-28T01:59:58;3.57;;;2.73;;
12814;SDS011;6472;52.328;13.070;2023-02-28T02:02:29;2.90;;;2.23;;
12814;SDS011;6472;52.328;13.070;2023-02-28T02:04:59;6.27;;;2.40;;
12814;SDS011;6472;52.328;13.070;2023-02-28T02:07:32;4.00;;;2.53;;
12814;SDS011;6472;52.328;13.070;2023-02-28T02:10:06;3.23;;;2.17;;
12814;SDS011;6472;52.328;13.070;2023-02-28T02:13:00;3.77;;;2.43;;
12814;SDS011;6472;52.328;13.070;2023-02-28T02:15:36;4.07;;;2.50;;
12814;SDS011;6472;52.328;13.070;2023-02-28T02:18:11;5.90;;;3.20;;
12814;SDS011;6472;52.328;13.070;2023-02-28T02:20:47;2.93;;;2.10;;
12814;SDS011;6472;52.328;13.070;2023-02-28T02:26:46;2.43;;;2.10;;
12814;SDS011;6472;52.328;13.070;2023-02-28T02:29:27;4.50;;;2.20;;
12814;SDS011;6472;52.328;13.070;2023-02-28T02:35:17;4.60;;;3.13;;
12814;SDS011;6472;52.328;13.070;2023-02-28T02:37:53;4.23;;;2.50;;
12814;SDS011;6472;52.328;13.070;2023-02-28T02:40:29;20.03;;;2.60;;
12814;SDS011;6472;52.328;13.070;2023-02-28T02:43:02;5.27;;;2.43;;
12814;SDS011;6472;52.328;13.070;2023-02-28T02:45:36;4.13;;;2.00;;
12814;SDS011;6472;52.328;13.070;2023-02-28T02:48:10;3.67;;;2.40;;
12814;SDS011;6472;52.328;13.070;2023-02-28T02:50:43;4.93;;;2.40;;
12814;SDS011;6472;52.328;13.070;2023-02-28T02:53:17;2.33;;;2.07;;
12814;SDS011;6472;52.328;13.070;2023-02-28T02:55:48;2.10;;;2.00;;
12814;SDS011;6472;52.328;13.070;2023-02-28T02:58:22;3.40;;;2.67;;
12814;SDS011;6472;52.328;13.070;2023-02-28T03:00:54;2.90;;;2.17;;
12814;SDS011;6472;52.328;13.070;2023-02-28T03:03:25;3.57;;;2.37;;
12814;SDS011;6472;52.328;13.070;2023-02-28T03:05:58;5.87;;;2.73;;
12814;SDS011;6472;52.328;13.070;2023-02-28T03:08:28;9.33;;;2.50;;
12814;SDS011;6472;52.328;13.070;2023-02-28T03:11:01;6.77;;;2.47;;
12814;SDS011;6472;52.328;13.070;2023-02-28T03:13:35;2.67;;;2.27;;
12814;SDS011;6472;52.328;13.070;2023-02-28T03:16:15;3.23;;;2.30;;
12814;SDS011;6472;52.328;13.070;2023-02-28T03:19:10;2.07;;;1.93;;
12814;SDS011;6472;52.328;13.070;2023-02-28T03:21:55;2.13;;;2.03;;
12814;SDS011;6472;52.328;13.070;2023-02-28T03:24:32;6.90;;;2.83;;
12814;SDS011;6472;52.328;13.070;2023-02-28T03:27:09;1.77;;;1.57;;
12814;SDS011;6472;52.328;13.070;2023-02-28T03:29:41;4.50;;;2.70;;
12814;SDS011;6472;52.328;13.070;2023-02-28T03:32:14;3.87;;;2.43;;
12814;SDS011;6472;52.328;13.070;2023-02-28T03:34:49;3.50;;;3.03;;
12814;SDS011;6472;52.328;13.070;2023-02-28T03:37:26;3.90;;;2.23;;
12814;SDS011;6472;52.328;13.070;2023-02-28T03:39:56;2.20;;;2.00;;
12814;SDS011;6472;52.328;13.070;2023-02-28T03:42:27;2.33;;;2.13;;
12814;SDS011;6472;52.328;13.070;2023-02-28T03:44:59;2.60;;;2.40;;
12814;SDS011;6472;52.328;13.070;2023-02-28T03:47:35;3.73;;;2.37;;
12814;SDS011;6472;52.328;13.070;2023-02-28T03:50:07;3.63;;;2.70;;
12814;SDS011;6472;52.328;13.070;2023-02-28T03:52:41;1.53;;;1.47;;
12814;SDS011;6472;52.328;13.070;2023-02-28T03:55:12;2.93;;;2.10;;
12814;SDS011;6472;52.328;13.070;2023-02-28T03:57:46;2.70;;;2.33;;
12814;SDS011;6472;52.328;13.070;2023-02-28T04:00:25;2.57;;;1.93;;
12814;SDS011;6472;52.328;13.070;2023-02-28T04:02:57;4.20;;;2.67;;
12814;SDS011;6472;52.328;13.070;2023-02-28T04:05:25;3.23;;;2.10;;
12814;SDS011;6472;52.328;13.070;2023-02-28T04:08:00;3.77;;;2.40;;
12814;SDS011;6472;52.328;13.070;2023-02-28T04:10:31;2.63;;;2.23;;
12814;SDS011;6472;52.328;13.070;2023-02-28T04:12:59;1.73;;;1.63;;
12814;SDS011;6472;52.328;13.070;2023-02-28T04:15:27;2.90;;;2.37;;
12814;SDS011;6472;52.328;13.070;2023-02-28T04:17:55;2.63;;;2.30;;
12814;SDS011;6472;52.328;13.070;2023-02-28T04:20:24;2.80;;;2.03;;
12814;SDS011;6472;52.328;13.070;2023-02-28T04:22:52;3.10;;;2.80;;
12814;SDS011;6472;52.328;13.070;2023-02-28T04:25:21;1.70;;;1.60;;
12814;SDS011;6472;52.328;13.070;2023-02-28T04:27:49;1.60;;;1.60;;
12814;SDS011;6472;52.328;13.070;2023-02-28T04:30:17;7.37;;;2.53;;
12814;SDS011;6472;52.328;13.070;2023-02-28T04:32:45;2.37;;;2.17;;
12814;SDS011;6472;52.328;13.070;2023-02-28T04:35:13;2.03;;;1.93;;
12814;SDS011;6472;52.328;13.070;2023-02-28T04:37:41;2.50;;;2.30;;
12814;SDS011;6472;52.328;13.070;2023-02-28T04:40:10;2.90;;;2.70;;
12814;SDS011;6472;52.328;13.070;2023-02-28T04:42:41;3.70;;;2.27;;
12814;SDS011;6472;52.328;13.070;2023-02-28T04:45:09;2.10;;;1.83;;
12814;SDS011;6472;52.328;13.070;2023-02-28T04:47:37;3.23;;;2.50;;
12814;SDS011;6472;52.328;13.070;2023-02-28T04:50:05;4.50;;;2.50;;
12814;SDS011;6472;52.328;13.070;2023-02-28T04:52:34;7.50;;;2.67;;
12814;SDS011;6472;52.328;13.070;2023-02-28T04:55:03;7.47;;;3.30;;
12814;SDS011;6472;52.328;13.070;2023-02-28T04:57:32;7.10;;;4.13;;
12814;SDS011;6472;52.328;13.070;2023-02-28T05:00:02;3.73;;;2.90;;
12814;SDS011;6472;52.328;13.070;2023-02-28T05:02:33;3.20;;;2.80;;
12814;SDS011;6472;52.328;13.070;2023-02-28T05:05:02;5.67;;;2.83;;
12814;SDS011;6472;52.328;13.070;2023-02-28T05:07:30;5.83;;;3.17;;
12814;SDS011;6472;52.328;13.070;2023-02-28T05:09:58;3.07;;;2.77;;
12814;SDS011;6472;52.328;13.070;2023-02-28T05:12:27;2.27;;;2.17;;
12814;SDS011;6472;52.328;13.070;2023-02-28T05:14:55;3.47;;;2.83;;
12814;SDS011;6472;52.328;13.070;2023-02-28T05:17:25;1.90;;;1.80;;
12814;SDS011;6472;52.328;13.070;2023-02-28T05:19:53;5.37;;;2.77;;
12814;SDS011;6472;52.328;13.070;2023-02-28T05:22:31;1.80;;;1.70;;
12814;SDS011;6472;52.328;13.070;2023-02-28T05:24:59;3.10;;;2.13;;
12814;SDS011;6472;52.328;13.070;2023-02-28T05:27:27;3.70;;;2.23;;
12814;SDS011;6472;52.328;13.070;2023-02-28T05:29:56;7.43;;;3.33;;
12814;SDS011;6472;52.328;13.070;2023-02-28T05:32:26;3.07;;;2.50;;
12814;SDS011;6472;52.328;13.070;2023-02-28T05:34:54;2.83;;;2.20;;
12814;SDS011;6472;52.328;13.070;2023-02-28T05:37:24;3.33;;;2.17;;
12814;SDS011;6472;52.328;13.070;2023-02-28T05:39:52;2.77;;;2.07;;
12814;SDS011;6472;52.328;13.070;2023-02-28T05:42:20;5.97;;;3.17;;
12814;SDS011;6472;52.328;13.070;2023-02-28T05:44:47;2.03;;;1.77;;
12814;SDS011;6472;52.328;13.070;2023-02-28T05:47:17;4.13;;;2.87;;
12814;SDS011;6472;52.328;13.070;2023-02-28T05:49:46;3.27;;;2.63;;
12814;SDS011;6472;52.328;13.070;2023-02-28T05:52:14;1.63;;;1.53;;
12814;SDS011;6472;52.328;13.070;2023-02-28T05:54:42;4.80;;;2.53;;
12814;SDS011;6472;52.328;13.070;2023-02-28T05:57:11;3.40;;;2.20;;
12814;SDS011;6472;52.328;13.070;2023-02-28T05:59:49;2.23;;;2.03;;
12814;SDS011;6472;52.328;13.070;2023-02-28T06:02:17;2.97;;;1.80;;
12814;SDS011;6472;52.328;13.070;2023-02-28T06:04:47;4.87;;;2.10;;
12814;SDS011;6472;52.328;13.070;2023-02-28T06:07:15;2.10;;;2.00;;
12814;SDS011;6472;52.328;13.070;2023-02-28T06:09:43;1.93;;;1.73;;
12814;SDS011;6472;52.328;13.070;2023-02-28T06:12:11;4.83;;;2.13;;
12814;SDS011;6472;52.328;13.070;2023-02-28T06:14:39;2.33;;;1.80;;
12814;SDS011;6472;52.328;13.070;2023-02-28T06:17:08;3.73;;;3.23;;
12814;SDS011;6472;52.328;13.070;2023-02-28T06:19:37;3.37;;;2.97;;
12814;SDS011;6472;52.328;13.070;2023-02-28T06:22:09;4.43;;;2.73;;
12814;SDS011;6472;52.328;13.070;2023-02-28T06:24:37;4.03;;;3.37;;
12814;SDS011;6472;52.328;13.070;2023-02-28T06:27:05;4.83;;;3.57;;
12814;SDS011;6472;52.328;13.070;2023-02-28T06:29:33;4.07;;;2.90;;
12814;SDS011;6472;52.328;13.070;2023-02-28T06:32:06;3.03;;;2.60;;
12814;SDS011;6472;52.328;13.070;2023-02-28T06:34:34;2.73;;;1.93;;
12814;SDS011;6472;52.328;13.070;2023-02-28T06:37:03;2.40;;;2.20;;
12814;SDS011;6472;52.328;13.070;2023-02-28T06:39:32;2.70;;;2.20;;
12814;SDS011;6472;52.328;13.070;2023-02-28T06:42:00;2.67;;;2.47;;
12814;SDS011;6472;52.328;13.070;2023-02-28T06:44:29;3.27;;;3.00;;
12814;SDS011;6472;52.328;13.070;2023-02-28T06:47:01;2.83;;;2.53;;
12814;SDS011;6472;52.328;13.070;2023-02-28T06:49:30;3.60;;;2.50;;
12814;SDS011;6472;52.328;13.070;2023-02-28T06:51:59;6.17;;;2.40;;
12814;SDS011;6472;52.328;13.070;2023-02-28T06:54:27;2.67;;;2.47;;
12814;SDS011;6472;52.328;13.070;2023-02-28T06:56:58;4.90;;;2.37;;
12814;SDS011;6472;52.328;13.070;2023-02-28T06:59:26;3.30;;;2.60;;
12814;SDS011;6472;52.328;13.070;2023-02-28T07:01:54;2.37;;;2.10;;
12814;SDS011;6472;52.328;13.070;2023-02-28T07:04:22;3.73;;;2.23;;
12814;SDS011;6472;52.328;13.070;2023-02-28T07:06:51;4.70;;;2.40;;
12814;SDS011;6472;52.328;13.070;2023-02-28T07:09:19;5.30;;;2.33;;
12814;SDS011;6472;52.328;13.070;2023-02-28T07:11:47;2.20;;;2.10;;
12814;SDS011;6472;52.328;13.070;2023-02-28T07:14:16;2.00;;;1.90;;
12814;SDS011;6472;52.328;13.070;2023-02-28T07:16:44;2.50;;;2.33;;
12814;SDS011;6472;52.328;13.070;2023-02-28T07:19:12;3.60;;;2.20;;
12814;SDS011;6472;52.328;13.070;2023-02-28T07:21:40;3.90;;;2.40;;
12814;SDS011;6472;52.328;13.070;2023-02-28T07:24:08;4.10;;;2.90;;
12814;SDS011;6472;52.328;13.070;2023-02-28T07:26:36;4.47;;;2.70;;
12814;SDS011;6472;52.328;13.070;2023-02-28T07:29:04;2.13;;;1.83;;
12814;SDS011;6472;52.328;13.070;2023-02-28T07:31:33;4.63;;;3.00;;
12814;SDS011;6472;52.328;13.070;2023-02-28T07:34:01;3.87;;;2.37;;
12814;SDS011;6472;52.328;13.070;2023-02-28T07:36:29;3.83;;;2.90;;
12814;SDS011;6472;52.328;13.070;2023-02-28T07:38:57;2.90;;;2.27;;
12814;SDS011;6472;52.328;13.070;2023-02-28T07:41:26;3.63;;;3.17;;
12814;SDS011;6472;52.328;13.070;2023-02-28T07:43:56;2.93;;;2.63;;
12814;SDS011;6472;52.328;13.070;2023-02-28T07:46:26;4.73;;;3.00;;
12814;SDS011;6472;52.328;13.070;2023-02-28T07:48:57;13.17;;;7.53;;
12814;SDS011;6472;52.328;13.070;2023-02-28T07:51:26;19.00;;;7.60;;
12814;SDS011;6472;52.328;13.070;2023-02-28T07:53:54;8.57;;;4.87;;
12814;SDS011;6472;52.328;13.070;2023-02-28T07:56:22;5.80;;;4.10;;
12814;SDS011;6472;52.328;13.070;2023-02-28T07:58:50;4.77;;;4.10;;
12814;SDS011;6472;52.328;13.070;2023-02-28T08:01:18;7.67;;;4.73;;
12814;SDS011;6472;52.328;13.070;2023-02-28T08:03:47;6.03;;;4.53;;
12814;SDS011;6472;52.328;13.070;2023-02-28T08:06:17;4.53;;;3.57;;
12814;SDS011;6472;52.328;13.070;2023-02-28T08:08:46;7.63;;;4.33;;
12814;SDS011;6472;52.328;13.070;2023-02-28T08:11:15;4.83;;;3.57;;
12814;SDS011;6472;52.328;13.070;2023-02-28T08:13:44;6.60;;;4.37;;
12814;SDS011;6472;52.328;13.070;2023-02-28T08:16:13;11.20;;;4.70;;
12814;SDS011;6472;52.328;13.070;2023-02-28T08:18:44;7.50;;;4.77;;
12814;SDS011;6472;52.328;13.070;2023-02-28T08:21:12;6.47;;;3.63;;
12814;SDS011;6472;52.328;13.070;2023-02-28T08:23:41;6.07;;;3.57;;
12814;SDS011;6472;52.328;13.070;2023-02-28T08:26:09;6.27;;;4.20;;
12814;SDS011;6472;52.328;13.070;2023-02-28T08:28:37;8.07;;;3.80;;
12814;SDS011;6472;52.328;13.070;2023-02-28T08:31:08;6.03;;;3.07;;
12814;SDS011;6472;52.328;13.070;2023-02-28T08:33:37;4.30;;;2.70;;
12814;SDS011;6472;52.328;13.070;2023-02-28T08:36:06;2.20;;;1.70;;
12814;SDS011;6472;52.328;13.070;2023-02-28T08:38:36;2.67;;;2.27;;
12814;SDS011;6472;52.328;13.070;2023-02-28T08:41:06;3.40;;;1.87;;
12814;SDS011;6472;52.328;13.070;2023-02-28T08:43:36;1.90;;;1.50;;
12814;SDS011;6472;52.328;13.070;2023-02-28T08:46:05;3.43;;;2.10;;
12814;SDS011;6472;52.328;13.070;2023-02-28T08:48:34;1.80;;;1.70;;
12814;SDS011;6472;52.328;13.070;2023-02-28T08:51:06;3.47;;;2.50;;
12814;SDS011;6472;52.328;13.070;2023-02-28T08:53:36;2.20;;;1.73;;
12814;SDS011;6472;52.328;13.070;2023-02-28T08:56:06;3.40;;;1.90;;
12814;SDS011;6472;52.328;13.070;2023-02-28T08:58:36;3.17;;;1.73;;
12814;SDS011;6472;52.328;13.070;2023-02-28T09:01:08;3.63;;;1.93;;
12814;SDS011;6472;52.328;13.070;2023-02-28T09:03:38;5.10;;;1.90;;
12814;SDS011;6472;52.328;13.070;2023-02-28T09:06:08;2.43;;;2.23;;
12814;SDS011;6472;52.328;13.070;2023-02-28T09:08:37;1.93;;;1.83;;
12814;SDS011;6472;52.328;13.070;2023-02-28T09:11:08;1.93;;;1.80;;
12814;SDS011;6472;52.328;13.070;2023-02-28T09:13:36;1.83;;;1.63;;
12814;SDS011;6472;52.328;13.070;2023-02-28T09:16:06;1.97;;;1.73;;
12814;SDS011;6472;52.328;13.070;2023-02-28T09:18:36;2.70;;;1.60;;
12814;SDS011;6472;52.328;13.070;2023-02-28T09:21:04;2.93;;;1.83;;
12814;SDS011;6472;52.328;13.070;2023-02-28T09:23:33;2.20;;;1.73;;
12814;SDS011;6472;52.328;13.070;2023-02-28T09:26:04;3.57;;;2.03;;
12814;SDS011;6472;52.328;13.070;2023-02-28T09:28:34;2.60;;;1.70;;
12814;SDS011;6472;52.328;13.070;2023-02-28T09:31:02;2.83;;;1.50;;
12814;SDS011;6472;52.328;13.070;2023-02-28T09:33:31;2.00;;;1.57;;
12814;SDS011;6472;52.328;13.070;2023-02-28T09:36:02;2.23;;;1.53;;
12814;SDS011;6472;52.328;13.070;2023-02-28T09:38:31;3.33;;;1.40;;
12814;SDS011;6472;52.328;13.070;2023-02-28T09:41:00;2.30;;;1.37;;
12814;SDS011;6472;52.328;13.070;2023-02-28T09:43:32;2.03;;;1.50;;
12814;SDS011;6472;52.328;13.070;2023-02-28T09:46:05;13.93;;;2.43;;
12814;SDS011;6472;52.328;13.070;2023-02-28T09:48:39;6.00;;;1.73;;
12814;SDS011;6472;52.328;13.070;2023-02-28T09:51:13;1.10;;;1.10;;
12814;SDS011;6472;52.328;13.070;2023-02-28T09:53:54;2.00;;;1.20;;
12814;SDS011;6472;52.328;13.070;2023-02-28T09:56:28;1.77;;;1.47;;
12814;SDS011;6472;52.328;13.070;2023-02-28T09:59:02;1.00;;;1.00;;
12814;SDS011;6472;52.328;13.070;2023-02-28T10:01:39;2.67;;;1.43;;
12814;SDS011;6472;52.328;13.070;2023-02-28T10:04:14;1.10;;;1.00;;
12814;SDS011;6472;52.328;13.070;2023-02-28T10:07:05;2.50;;;1.20;;
12814;SDS011;6472;52.328;13.070;2023-02-28T10:09:49;4.40;;;1.53;;
12814;SDS011;6472;52.328;13.070;2023-02-28T10:12:21;2.33;;;1.43;;
12814;SDS011;6472;52.328;13.070;2023-02-28T10:14:51;1.23;;;1.13;;
12814;SDS011;6472;52.328;13.070;2023-02-28T10:17:22;1.37;;;0.83;;
12814;SDS011;6472;52.328;13.070;2023-02-28T10:19:56;3.63;;;1.50;;
12814;SDS011;6472;52.328;13.070;2023-02-28T10:22:35;1.87;;;0.90;;
12814;SDS011;6472;52.328;13.070;2023-02-28T10:25:15;2.07;;;1.37;;
12814;SDS011;6472;52.328;13.070;2023-02-28T10:27:46;1.50;;;1.40;;
12814;SDS011;6472;52.328;13.070;2023-02-28T10:30:16;1.00;;;1.00;;
12814;SDS011;6472;52.328;13.070;2023-02-28T10:32:45;2.77;;;1.00;;
12814;SDS011;6472;52.328;13.070;2023-02-28T10:35:18;1.17;;;1.07;;
12814;SDS011;6472;52.328;13.070;2023-02-28T10:37:48;1.73;;;1.40;;
12814;SDS011;6472;52.328;13.070;2023-02-28T10:40:31;1.17;;;0.80;;
12814;SDS011;6472;52.328;13.070;2023-02-28T10:43:02;2.93;;;1.07;;
12814;SDS011;6472;52.328;13.070;2023-02-28T10:45:33;1.30;;;1.10;;
12814;SDS011;6472;52.328;13.070;2023-02-28T10:48:04;1.57;;;1.30;;
12814;SDS011;6472;52.328;13.070;2023-02-28T10:50:51;3.60;;;1.10;;
12814;SDS011;6472;52.328;13.070;2023-02-28T10:53:29;0.97;;;0.93;;
12814;SDS011;6472;52.328;13.070;2023-02-28T10:56:20;4.43;;;1.00;;
12814;SDS011;6472;52.328;13.070;2023-02-28T10:58:51;1.53;;;1.43;;
12814;SDS011;6472;52.328;13.070;2023-02-28T11:01:24;1.33;;;1.00;;
12814;SDS011;6472;52.328;13.070;2023-02-28T11:04:02;2.10;;;1.13;;
12814;SDS011;6472;52.328;13.070;2023-02-28T11:06:31;1.40;;;0.93;;
12814;SDS011;6472;52.328;13.070;2023-02-28T11:09:03;5.33;;;1.63;;
12814;SDS011;6472;52.328;13.070;2023-02-28T11:11:42;3.40;;;1.10;;
12814;SDS011;6472;52.328;13.070;2023-02-28T11:14:16;1.00;;;0.90;;
12814;SDS011;6472;52.328;13.070;2023-02-28T11:16:49;1.87;;;1.10;;
12814;SDS011;6472;52.328;13.070;2023-02-28T11:19:20;1.60;;;0.93;;
12814;SDS011;6472;52.328;13.070;2023-02-28T11:21:53;2.53;;;1.33;;
12814;SDS011;6472;52.328;13.070;2023-02-28T11:24:24;1.60;;;1.20;;
12814;SDS011;6472;52.328;13.070;2023-02-28T11:26:55;1.43;;;0.90;;
12814;SDS011;6472;52.328;13.070;2023-02-28T11:29:24;2.30;;;1.43;;
12814;SDS011;6472;52.328;13.070;2023-02-28T11:32:03;1.00;;;0.90;;
12814;SDS011;6472;52.328;13.070;2023-02-28T11:34:40;1.77;;;1.23;;
12814;SDS011;6472;52.328;13.070;2023-02-28T11:37:11;2.70;;;1.77;;
12814;SDS011;6472;52.328;13.070;2023-02-28T11:39:42;1.50;;;1.07;;
12814;SDS011;6472;52.328;13.070;2023-02-28T11:42:21;3.57;;;1.60;;
12814;SDS011;6472;52.328;13.070;2023-02-28T11:45:11;6.43;;;1.20;;
12814;SDS011;6472;52.328;13.070;2023-02-28T11:47:48;1.77;;;1.10;;
12814;SDS011;6472;52.328;13.070;2023-02-28T11:50:28;1.20;;;1.10;;
12814;SDS011;6472;52.328;13.070;2023-02-28T11:53:16;2.67;;;0.70;;
12814;SDS011;6472;52.328;13.070;2023-02-28T11:55:53;1.00;;;1.00;;
12814;SDS011;6472;52.328;13.070;2023-02-28T11:58:38;1.00;;;1.00;;
12814;SDS011;6472;52.328;13.070;2023-02-28T12:01:16;2.40;;;1.20;;
12814;SDS011;6472;52.328;13.070;2023-02-28T12:04:01;1.10;;;1.00;;
12814;SDS011;6472;52.328;13.070;2023-02-28T12:06:40;1.53;;;1.10;;
12814;SDS011;6472;52.328;13.070;2023-02-28T12:09:20;2.57;;;1.50;;
12814;SDS011;6472;52.328;13.070;2023-02-28T12:12:04;1.30;;;1.20;;
12814;SDS011;6472;52.328;13.070;2023-02-28T12:14:48;1.43;;;1.10;;
12814;SDS011;6472;52.328;13.070;2023-02-28T12:17:27;1.13;;;1.13;;
12814;SDS011;6472;52.328;13.070;2023-02-28T12:20:12;1.10;;;1.10;;
12814;SDS011;6472;52.328;13.070;2023-02-28T12:22:50;1.37;;;1.10;;
12814;SDS011;6472;52.328;13.070;2023-02-28T12:28:28;0.77;;;0.70;;
12814;SDS011;6472;52.328;13.070;2023-02-28T12:31:01;1.13;;;1.10;;
12814;SDS011;6472;52.328;13.070;2023-02-28T12:33:34;2.30;;;1.53;;
12814;SDS011;6472;52.328;13.070;2023-02-28T12:36:10;2.03;;;1.10;;
12814;SDS011;6472;52.328;13.070;2023-02-28T12:38:44;1.47;;;1.20;;
12814;SDS011;6472;52.328;13.070;2023-02-28T12:41:15;4.03;;;1.20;;
12814;SDS011;6472;52.328;13.070;2023-02-28T12:43:48;1.57;;;1.10;;
12814;SDS011;6472;52.328;13.070;2023-02-28T12:46:24;1.37;;;1.27;;
12814;SDS011;6472;52.328;13.070;2023-02-28T12:48:56;0.90;;;0.90;;
12814;SDS011;6472;52.328;13.070;2023-02-28T12:51:28;1.40;;;1.30;;
12814;SDS011;6472;52.328;13.070;2023-02-28T12:53:58;1.70;;;1.27;;
12814;SDS011;6472;52.328;13.070;2023-02-28T12:56:34;1.40;;;1.10;;
12814;SDS011;6472;52.328;13.070;2023-02-28T12:59:11;3.87;;;1.23;;
12814;SDS011;6472;52.328;13.070;2023-02-28T13:01:49;1.53;;;1.30;;
12814;SDS011;6472;52.328;13.070;2023-02-28T13:07:41;6.53;;;2.03;;
12814;SDS011;6472;52.328;13.070;2023-02-28T13:10:38;1.93;;;1.23;;
12814;SDS011;6472;52.328;13.070;2023-02-28T13:13:13;1.90;;;1.40;;
12814;SDS011;6472;52.328;13.070;2023-02-28T13:18:35;2.03;;;1.30;;
12814;SDS011;6472;52.328;13.070;2023-02-28T13:21:06;1.83;;;1.40;;
12814;SDS011;6472;52.328;13.070;2023-02-28T13:23:38;1.53;;;1.33;;
12814;SDS011;6472;52.328;13.070;2023-02-28T13:29:27;1.43;;;1.33;;
12814;SDS011;6472;52.328;13.070;2023-02-28T13:34:49;1.50;;;1.13;;
12814;SDS011;6472;52.328;13.070;2023-02-28T13:38:17;2.53;;;1.53;;
12814;SDS011;6472;52.328;13.070;2023-02-28T13:40:51;1.73;;;1.40;;
12814;SDS011;6472;52.328;13.070;2023-02-28T13:43:19;3.03;;;1.50;;
12814;SDS011;6472;52.328;13.070;2023-02-28T13:46:05;1.70;;;1.30;;
12814;SDS011;6472;52.328;13.070;2023-02-28T13:48:39;2.03;;;1.60;;
12814;SDS011;6472;52.328;13.070;2023-02-28T13:54:17;4.27;;;1.57;;
12814;SDS011;6472;52.328;13.070;2023-02-28T13:57:09;1.93;;;1.57;;
12814;SDS011;6472;52.328;13.070;2023-02-28T13:59:50;2.17;;;1.70;;
12814;SDS011;6472;52.328;13.070;2023-02-28T14:02:38;1.33;;;1.23;;
12814;SDS011;6472;52.328;13.070;2023-02-28T14:05:14;1.17;;;1.00;;
12814;SDS011;6472;52.328;13.070;2023-02-28T14:07:45;2.87;;;1.27;;
12814;SDS011;6472;52.328;13.070;2023-02-28T14:10:22;2.47;;;1.47;;
12814;SDS011;6472;52.328;13.070;2023-02-28T14:12:54;1.13;;;1.07;;
12814;SDS011;6472;52.328;13.070;2023-02-28T14:15:34;2.87;;;1.30;;
12814;SDS011;6472;52.328;13.070;2023-02-28T14:18:32;2.17;;;1.30;;
12814;SDS011;6472;52.328;13.070;2023-02-28T14:21:03;1.03;;;1.00;;
12814;SDS011;6472;52.328;13.070;2023-02-28T14:23:52;1.93;;;1.40;;
12814;SDS011;6472;52.328;13.070;2023-02-28T14:26:41;2.67;;;1.80;;
12814;SDS011;6472;52.328;13.070;2023-02-28T14:29:34;3.37;;;1.70;;
12814;SDS011;6472;52.328;13.070;2023-02-28T14:32:15;1.53;;;1.43;;
12814;SDS011;6472;52.328;13.070;2023-02-28T14:34:55;1.43;;;1.33;;
12814;SDS011;6472;52.328;13.070;2023-02-28T14:37:33;1.93;;;1.60;;
12814;SDS011;6472;52.328;13.070;2023-02-28T14:40:11;2.63;;;1.73;;
12814;SDS011;6472;52.328;13.070;2023-02-28T14:42:45;3.43;;;1.40;;
12814;SDS011;6472;52.328;13.070;2023-02-28T14:45:18;2.47;;;2.07;;
12814;SDS011;6472;52.328;13.070;2023-02-28T14:47:48;1.97;;;1.50;;
12814;SDS011;6472;52.328;13.070;2023-02-28T14:50:18;2.03;;;1.53;;
12814;SDS011;6472;52.328;13.070;2023-02-28T14:52:49;2.10;;;1.30;;
12814;SDS011;6472;52.328;13.070;2023-02-28T14:55:22;1.17;;;1.13;;
12814;SDS011;6472;52.328;13.070;2023-02-28T14:57:55;1.93;;;1.50;;
12814;SDS011;6472;52.328;13.070;2023-02-28T15:00:25;2.07;;;1.73;;
12814;SDS011;6472;52.328;13.070;2023-02-28T15:02:54;1.50;;;1.23;;
12814;SDS011;6472;52.328;13.070;2023-02-28T15:05:25;2.67;;;1.87;;
12814;SDS011;6472;52.328;13.070;2023-02-28T15:08:02;1.77;;;1.67;;
12814;SDS011;6472;52.328;13.070;2023-02-28T15:10:32;1.50;;;1.40;;
12814;SDS011;6472;52.328;13.070;2023-02-28T15:13:04;2.70;;;1.67;;
12814;SDS011;6472;52.328;13.070;2023-02-28T15:15:39;2.80;;;1.50;;
12814;SDS011;6472;52.328;13.070;2023-02-28T15:18:30;1.60;;;1.40;;
12814;SDS011;6472;52.328;13.070;2023-02-28T15:21:06;1.47;;;1.37;;
12814;SDS011;6472;52.328;13.070;2023-02-28T15:23:38;5.13;;;1.70;;
12814;SDS011;6472;52.328;13.070;2023-02-28T15:26:10;6.37;;;1.57;;
12814;SDS011;6472;52.328;13.070;2023-02-28T15:28:43;1.10;;;1.10;;
12814;SDS011;6472;52.328;13.070;2023-02-28T15:31:22;2.90;;;1.63;;
12814;SDS011;6472;52.328;13.070;2023-02-28T15:33:54;1.87;;;1.67;;
12814;SDS011;6472;52.328;13.070;2023-02-28T15:36:24;1.90;;;1.10;;
12814;SDS011;6472;52.328;13.070;2023-02-28T15:38:55;3.30;;;1.50;;
12814;SDS011;6472;52.328;13.070;2023-02-28T15:44:53;1.60;;;1.50;;
12814;SDS011;6472;52.328;13.070;2023-02-28T15:47:24;1.87;;;1.40;;
12814;SDS011;6472;52.328;13.070;2023-02-28T15:49:55;1.87;;;1.40;;